createdAt,value
2022-10-14T00:02:43.024Z,10.82
2022-10-14T00:05:48.727Z,10.84
2022-10-14T00:08:58.292Z,10.83
2022-10-14T00:12:03.879Z,10.79
2022-10-14T00:15:11.557Z,10.78
2022-10-14T00:18:17.165Z,10.75
2022-10-14T00:21:24.760Z,10.74
2022-10-14T00:24:33.187Z,10.71
2022-10-14T00:27:39.688Z,10.69
2022-10-14T00:30:57.470Z,10.66
2022-10-14T00:34:04.160Z,10.63
2022-10-14T00:37:09.810Z,10.61
2022-10-14T00:40:19.181Z,10.61
2022-10-14T00:43:25.872Z,10.60
2022-10-14T00:46:34.319Z,10.62
2022-10-14T00:49:44.347Z,10.63
2022-10-14T00:52:53.399Z,10.62
2022-10-14T00:56:03.220Z,10.66
2022-10-14T00:59:10.473Z,10.68
2022-10-14T01:02:16.432Z,10.69
2022-10-14T01:05:23.865Z,10.67
2022-10-14T01:08:38.765Z,10.62
2022-10-14T01:12:09.865Z,10.58
2022-10-14T01:15:28.385Z,10.55
2022-10-14T01:18:49.681Z,10.55
2022-10-14T01:22:03.618Z,10.50
2022-10-14T01:25:22.134Z,10.43
2022-10-14T01:28:46.782Z,10.36
2022-10-14T01:32:06.245Z,10.34
2022-10-14T01:35:22.713Z,10.32
2022-10-14T01:38:33.902Z,10.32
2022-10-14T01:41:45.904Z,10.34
2022-10-14T01:44:56.497Z,10.37
2022-10-14T01:48:07.818Z,10.42
2022-10-14T01:51:18.164Z,10.45
2022-10-14T01:54:38.166Z,10.52
2022-10-14T01:57:45.806Z,10.54
2022-10-14T02:00:54.246Z,10.59
2022-10-14T02:04:03.528Z,10.64
2022-10-14T02:07:13.563Z,10.66
2022-10-14T02:10:39.702Z,10.67
2022-10-14T02:14:03.798Z,10.67
2022-10-14T02:17:14.662Z,10.68
2022-10-14T02:20:32.207Z,10.71
2022-10-14T02:23:42.636Z,10.73
2022-10-14T02:26:51.661Z,10.78
2022-10-14T02:29:59.919Z,10.77
2022-10-14T02:33:10.500Z,10.79
2022-10-14T02:36:23.120Z,10.82
2022-10-14T02:39:34.238Z,10.84
2022-10-14T02:42:39.998Z,10.84
2022-10-14T02:45:47.304Z,10.81
2022-10-14T02:48:53.439Z,10.82
2022-10-14T02:52:03.812Z,10.80
2022-10-14T02:55:10.763Z,10.79
2022-10-14T02:58:17.789Z,10.78
2022-10-14T03:01:23.761Z,10.75
2022-10-14T03:04:30.610Z,10.72
2022-10-14T03:07:39.370Z,10.68
2022-10-14T03:10:50.337Z,10.69
2022-10-14T03:13:56.204Z,10.65
2022-10-14T03:17:04.423Z,10.63
2022-10-14T03:20:13.463Z,10.64
2022-10-14T03:23:29.520Z,10.64
2022-10-14T03:26:35.244Z,10.62
2022-10-14T03:29:41.807Z,10.60
2022-10-14T03:32:56.864Z,10.59
2022-10-14T03:36:23.315Z,10.57
2022-10-14T03:39:35.018Z,10.56
2022-10-14T03:42:44.936Z,10.57
2022-10-14T03:45:51.130Z,10.57
2022-10-14T03:49:00.561Z,10.62
2022-10-14T03:52:08.401Z,10.65
2022-10-14T03:55:19.850Z,10.70
2022-10-14T03:58:28.360Z,10.72
2022-10-14T04:01:41.566Z,10.73
2022-10-14T04:05:00.881Z,10.73
2022-10-14T04:08:09.208Z,10.76
2022-10-14T04:11:19.782Z,10.78
2022-10-14T04:14:29.588Z,10.76
2022-10-14T04:17:35.494Z,10.78
2022-10-14T04:20:49.807Z,10.78
2022-10-14T04:23:59.061Z,10.79
2022-10-14T04:27:25.660Z,10.82
2022-10-14T04:30:39.607Z,10.86
2022-10-14T04:33:49.357Z,10.92
2022-10-14T04:37:00.876Z,10.96
2022-10-14T04:40:29.275Z,11.02
2022-10-14T04:43:39.053Z,11.07
2022-10-14T04:46:58.895Z,11.09
2022-10-14T04:50:08.766Z,11.08
2022-10-14T04:53:21.071Z,11.10
2022-10-14T04:56:39.504Z,11.17
2022-10-14T04:59:48.838Z,11.22
2022-10-14T05:03:14.742Z,11.24
2022-10-14T05:06:22.123Z,11.31
2022-10-14T05:09:30.994Z,11.34
2022-10-14T05:12:39.315Z,11.34
2022-10-14T05:15:47.955Z,11.37
2022-10-14T05:18:56.142Z,11.41
2022-10-14T05:22:03.452Z,11.45
2022-10-14T05:25:19.142Z,11.47
2022-10-14T05:28:25.949Z,11.53
2022-10-14T05:31:37.063Z,11.58
2022-10-14T05:35:33.951Z,11.62
2022-10-14T05:38:45.061Z,11.65
2022-10-14T05:41:50.877Z,11.65
2022-10-14T05:45:03.259Z,11.72
2022-10-14T05:48:14.390Z,11.74
2022-10-14T05:51:21.415Z,11.76
2022-10-14T05:54:32.853Z,11.80
2022-10-14T05:57:39.832Z,11.83
2022-10-14T06:00:45.756Z,11.86
2022-10-14T06:04:00.412Z,11.90
2022-10-14T06:07:09.725Z,11.92
2022-10-14T06:10:16.518Z,11.98
2022-10-14T06:13:22.374Z,12.01
2022-10-14T06:16:29.618Z,12.04
2022-10-14T06:19:38.294Z,12.08
2022-10-14T06:22:45.824Z,12.11
2022-10-14T06:25:51.802Z,12.13
2022-10-14T06:28:58.372Z,12.20
2022-10-14T06:32:04.027Z,12.28
2022-10-14T06:35:13.764Z,12.35
2022-10-14T06:38:19.570Z,12.40
2022-10-14T06:41:27.186Z,12.44
2022-10-14T06:44:32.980Z,12.50
2022-10-14T06:47:39.704Z,12.59
2022-10-14T06:50:48.343Z,12.67
2022-10-14T06:53:54.794Z,12.73
2022-10-14T06:57:00.895Z,12.78
2022-10-14T07:00:10.440Z,12.84
2022-10-14T07:03:16.320Z,12.89
2022-10-14T07:06:25.652Z,12.93
2022-10-14T07:09:32.588Z,12.99
2022-10-14T07:12:39.190Z,13.08
2022-10-14T07:15:45.893Z,13.14
2022-10-14T07:18:52.792Z,13.20
2022-10-14T07:22:01.286Z,13.28
2022-10-14T07:25:10.242Z,13.35
2022-10-14T07:32:00.972Z,13.50
2022-10-14T07:35:10.511Z,13.62
2022-10-14T07:38:19.313Z,13.66
2022-10-14T07:41:28.188Z,13.73
2022-10-14T07:44:33.825Z,13.83
2022-10-14T07:47:40.434Z,13.96
2022-10-14T07:50:46.124Z,14.05
2022-10-14T07:53:55.926Z,14.07
2022-10-14T07:57:03.870Z,14.11
2022-10-14T08:00:12.103Z,14.16
2022-10-14T08:03:18.279Z,14.22
2022-10-14T08:06:25.293Z,14.27
2022-10-14T08:09:34.064Z,14.38
2022-10-14T08:12:41.120Z,14.48
2022-10-14T08:15:46.710Z,14.59
2022-10-14T08:18:54.220Z,14.71
2022-10-14T08:22:01.679Z,14.79
2022-10-14T08:25:12.965Z,14.87
2022-10-14T08:28:18.799Z,14.95
2022-10-14T08:31:25.809Z,14.95
2022-10-14T08:34:31.970Z,14.87
2022-10-14T08:37:38.470Z,14.83
2022-10-14T08:41:03.326Z,14.80
2022-10-14T08:44:18.154Z,14.68
2022-10-14T08:47:27.832Z,14.55
2022-10-14T08:50:39.477Z,14.56
2022-10-14T08:53:49.245Z,14.62
2022-10-14T08:56:59.268Z,14.73
2022-10-14T09:00:07.784Z,14.87
2022-10-14T09:03:21.532Z,14.98
2022-10-14T09:06:30.778Z,15.10
2022-10-14T09:09:44.985Z,15.27
2022-10-14T09:12:55.209Z,15.40
2022-10-14T09:16:06.952Z,15.54
2022-10-14T09:19:18.586Z,15.74
2022-10-14T09:22:26.641Z,15.79
2022-10-14T09:25:36.045Z,15.96
2022-10-14T09:28:49.118Z,16.09
2022-10-14T09:31:56.655Z,16.12
2022-10-14T09:35:03.815Z,16.22
2022-10-14T09:38:10.257Z,16.39
2022-10-14T09:41:19.207Z,16.56
2022-10-14T09:44:28.846Z,16.70
2022-10-14T09:47:40.237Z,16.71
2022-10-14T09:50:51.761Z,16.67
2022-10-14T09:54:00.223Z,16.60
2022-10-14T09:57:10.499Z,16.60
2022-10-14T10:00:33.235Z,16.56
2022-10-14T10:03:41.295Z,16.46
2022-10-14T10:06:55.817Z,16.49
2022-10-14T10:10:05.201Z,16.58
2022-10-14T10:13:25.330Z,16.67
2022-10-14T10:16:34.984Z,16.85
2022-10-14T10:19:43.333Z,16.97
2022-10-14T10:22:49.186Z,17.04
2022-10-14T10:25:55.854Z,16.99
2022-10-14T10:29:03.837Z,16.97
2022-10-14T10:32:20.350Z,16.98
2022-10-14T10:35:30.210Z,16.85
2022-10-14T10:38:43.394Z,16.60
2022-10-14T10:42:01.104Z,16.50
2022-10-14T10:45:19.069Z,16.47
2022-10-14T10:48:37.376Z,16.32
2022-10-14T10:51:53.566Z,16.14
2022-10-14T10:55:06.653Z,16.13
2022-10-14T10:58:28.314Z,16.19
2022-10-14T11:01:42.448Z,16.21
2022-10-14T11:04:57.384Z,16.34
2022-10-14T11:12:13.781Z,16.50
2022-10-14T11:15:33.714Z,16.62
2022-10-14T11:18:48.441Z,16.64
2022-10-14T11:22:06.887Z,16.63
2022-10-14T11:25:25.747Z,16.56
2022-10-14T11:28:40.654Z,16.54
2022-10-14T11:31:54.732Z,16.54
2022-10-14T11:35:20.448Z,16.56
2022-10-14T11:38:43.404Z,16.55
2022-10-14T11:42:05.063Z,16.54
2022-10-14T11:45:37.884Z,16.52
2022-10-14T11:48:48.322Z,16.57
2022-10-14T11:52:00.092Z,16.53
2022-10-14T11:55:19.452Z,16.61
2022-10-14T11:58:29.045Z,16.67
2022-10-14T12:01:38.207Z,16.59
2022-10-14T12:04:56.544Z,16.67
2022-10-14T12:08:11.170Z,16.71
2022-10-14T12:11:30.350Z,16.75
2022-10-14T12:14:38.535Z,16.71
2022-10-14T12:17:50.085Z,16.75
2022-10-14T12:21:05.017Z,16.88
2022-10-14T12:24:16.375Z,17.00
2022-10-14T12:27:30.063Z,16.99
2022-10-14T12:30:42.001Z,16.95
2022-10-14T12:34:19.160Z,16.94
2022-10-14T12:41:36.431Z,16.95
2022-10-14T12:44:53.276Z,17.04
2022-10-14T12:48:10.348Z,16.99
2022-10-14T12:51:20.191Z,16.94
2022-10-14T12:54:27.830Z,17.07
2022-10-14T12:57:41.534Z,17.24
2022-10-14T13:00:58.591Z,17.34
2022-10-14T13:04:10.757Z,17.38
2022-10-14T13:07:40.428Z,17.36
2022-10-14T13:10:50.812Z,17.31
2022-10-14T13:14:04.288Z,17.29
2022-10-14T13:17:49.058Z,17.21
2022-10-14T13:20:57.893Z,17.08
2022-10-14T13:24:09.145Z,17.14
2022-10-14T13:27:25.670Z,17.27
2022-10-14T13:30:40.297Z,17.42
2022-10-14T13:33:55.834Z,17.55
2022-10-14T13:37:22.798Z,17.43
2022-10-14T13:40:35.328Z,17.43
2022-10-14T13:43:45.215Z,17.44
2022-10-14T13:46:52.938Z,17.49
2022-10-14T13:50:03.504Z,17.58
2022-10-14T13:53:17.097Z,17.55
2022-10-14T13:56:26.214Z,17.57
2022-10-14T13:59:47.535Z,17.60
2022-10-14T14:03:21.391Z,17.65
2022-10-14T14:06:39.861Z,17.62
2022-10-14T14:10:06.729Z,17.61
2022-10-14T14:13:16.363Z,17.63
2022-10-14T14:16:26.202Z,17.62
2022-10-14T14:19:33.266Z,17.42
2022-10-14T14:22:45.524Z,17.35
2022-10-14T14:26:17.903Z,17.27
2022-10-14T14:29:22.960Z,17.34
2022-10-14T14:32:33.892Z,17.45
2022-10-14T14:35:41.377Z,17.43
2022-10-14T14:38:58.887Z,17.49
2022-10-14T14:42:07.331Z,17.48
2022-10-14T14:45:19.755Z,17.48
2022-10-14T14:48:27.722Z,17.48
2022-10-14T14:51:38.121Z,17.47
2022-10-14T14:54:51.322Z,17.38
2022-10-14T14:58:00.162Z,17.29
2022-10-14T15:01:10.869Z,17.18
2022-10-14T15:04:20.704Z,17.06
2022-10-14T15:07:29.344Z,16.95
2022-10-14T15:10:37.791Z,16.90
2022-10-14T15:13:52.445Z,16.78
2022-10-14T15:16:58.067Z,16.68
2022-10-14T15:20:31.636Z,16.63
2022-10-14T15:23:42.137Z,16.47
2022-10-14T15:26:51.462Z,16.34
2022-10-14T15:30:36.002Z,16.23
2022-10-14T15:33:42.794Z,16.13
2022-10-14T15:36:48.711Z,16.03
2022-10-14T15:40:08.733Z,15.96
2022-10-14T15:43:20.527Z,15.88
2022-10-14T15:46:41.929Z,15.72
2022-10-14T15:49:47.627Z,15.60
2022-10-14T15:52:55.281Z,15.49
2022-10-14T15:56:01.178Z,15.38
2022-10-14T15:59:11.924Z,15.27
2022-10-14T16:02:21.166Z,15.22
2022-10-14T16:05:29.529Z,15.19
2022-10-14T16:08:35.117Z,15.13
2022-10-14T16:11:42.284Z,15.08
2022-10-14T16:14:50.697Z,15.07
2022-10-14T16:17:57.297Z,15.06
2022-10-14T16:21:03.598Z,15.04
2022-10-14T16:24:17.888Z,15.02
2022-10-14T16:27:24.897Z,15.01
2022-10-14T16:30:34.799Z,14.99
2022-10-14T16:33:43.272Z,14.99
2022-10-14T16:36:54.098Z,14.98
2022-10-14T16:39:59.924Z,14.93
2022-10-14T16:43:08.945Z,14.90
2022-10-14T16:46:18.166Z,14.85
2022-10-14T16:49:27.282Z,14.81
2022-10-14T16:52:53.001Z,14.78
2022-10-14T16:56:00.027Z,14.77
2022-10-14T16:59:09.969Z,14.76
2022-10-14T17:02:21.721Z,14.74
2022-10-14T17:05:28.280Z,14.74
2022-10-14T17:08:35.049Z,14.69
2022-10-14T17:11:41.821Z,14.66
2022-10-14T17:14:48.228Z,14.61
2022-10-14T17:17:58.316Z,14.59
2022-10-14T17:21:10.833Z,14.56
2022-10-14T17:24:17.205Z,14.52
2022-10-14T17:27:24.421Z,14.49
2022-10-14T17:30:31.131Z,14.43
2022-10-14T17:33:41.029Z,14.41
2022-10-14T17:36:46.658Z,14.38
2022-10-14T17:39:53.088Z,14.33
2022-10-14T17:43:00.169Z,14.28
2022-10-14T17:46:11.898Z,14.26
2022-10-14T17:49:20.269Z,14.23
2022-10-14T17:52:26.938Z,14.21
2022-10-14T17:55:32.905Z,14.11
2022-10-14T17:58:41.083Z,14.06
2022-10-14T18:02:04.036Z,14.04
2022-10-14T18:05:13.896Z,14.05
2022-10-14T18:08:19.463Z,13.99
2022-10-14T18:11:39.483Z,13.98
2022-10-14T18:14:54.259Z,13.94
2022-10-14T18:18:00.795Z,13.88
2022-10-14T18:21:11.224Z,13.85
2022-10-14T18:24:17.690Z,13.85
2022-10-14T18:27:23.577Z,13.83
2022-10-14T18:30:30.413Z,13.82
2022-10-14T18:33:37.524Z,13.78
2022-10-14T18:36:48.061Z,13.74
2022-10-14T18:39:53.767Z,13.67
2022-10-14T18:43:04.254Z,13.61
2022-10-14T18:46:13.406Z,13.54
2022-10-14T18:49:21.941Z,13.43
2022-10-14T18:52:32.199Z,13.36
2022-10-14T18:55:42.306Z,13.33
2022-10-14T18:58:50.678Z,13.30
2022-10-14T19:01:57.256Z,13.24
2022-10-14T19:05:03.289Z,13.18
2022-10-14T19:11:21.728Z,13.14
2022-10-14T19:14:28.870Z,13.06
2022-10-14T19:17:34.820Z,13.02
2022-10-14T19:20:41.818Z,12.96
2022-10-14T19:23:50.281Z,12.92
2022-10-14T19:26:57.179Z,12.87
2022-10-14T19:30:03.343Z,12.86
2022-10-14T19:33:09.857Z,12.82
2022-10-14T19:36:17.443Z,12.80
2022-10-14T19:39:26.702Z,12.76
2022-10-14T19:42:32.249Z,12.72
2022-10-14T19:45:44.653Z,12.68
2022-10-14T19:48:52.734Z,12.64
2022-10-14T19:51:59.188Z,12.60
2022-10-14T19:55:11.378Z,12.55
2022-10-14T19:58:17.856Z,12.48
2022-10-14T20:01:26.362Z,12.45
2022-10-14T20:04:33.251Z,12.40
2022-10-14T20:07:38.824Z,12.34
2022-10-14T20:10:48.058Z,12.27
2022-10-14T20:13:54.037Z,12.25
2022-10-14T20:17:03.613Z,12.22
2022-10-14T20:20:10.745Z,12.15
2022-10-14T20:23:17.904Z,12.09
2022-10-14T20:29:39.019Z,11.97
2022-10-14T20:32:44.697Z,11.90
2022-10-14T20:35:51.416Z,11.82
2022-10-14T20:38:57.301Z,11.79
2022-10-14T20:42:08.278Z,11.77
2022-10-14T20:45:14.053Z,11.72
2022-10-14T20:48:20.467Z,11.65
2022-10-14T20:51:26.517Z,11.60
2022-10-14T20:54:33.003Z,11.57
2022-10-14T20:57:41.598Z,11.53
2022-10-14T21:00:48.235Z,11.48
2022-10-14T21:03:55.490Z,11.43
2022-10-14T21:07:03.568Z,11.38
2022-10-14T21:10:13.563Z,11.32
2022-10-14T21:13:22.878Z,11.28
2022-10-14T21:16:30.567Z,11.24
2022-10-14T21:19:37.432Z,11.22
2022-10-14T21:22:43.042Z,11.16
2022-10-14T21:25:57.651Z,11.16
2022-10-14T21:29:07.362Z,11.11
2022-10-14T21:32:13.814Z,11.08
2022-10-14T21:35:19.592Z,11.04
2022-10-14T21:38:26.047Z,11.04
2022-10-14T21:41:32.041Z,11.02
2022-10-14T21:44:41.523Z,10.99
2022-10-14T21:47:47.254Z,10.96
2022-10-14T21:51:04.401Z,10.95
2022-10-14T21:54:11.171Z,10.92
2022-10-14T21:57:17.751Z,10.90
2022-10-14T22:00:26.423Z,10.86
2022-10-14T22:03:33.654Z,10.82
2022-10-14T22:06:39.629Z,10.79
2022-10-14T22:09:46.272Z,10.78
2022-10-14T22:12:52.106Z,10.77
2022-10-14T22:16:04.351Z,10.75
2022-10-14T22:19:10.991Z,10.72
2022-10-14T22:22:17.417Z,10.71
2022-10-14T22:25:23.020Z,10.70
2022-10-14T22:28:30.850Z,10.68
2022-10-14T22:31:39.500Z,10.65
2022-10-14T22:34:46.196Z,10.66
2022-10-14T22:37:51.917Z,10.64
2022-10-14T22:40:58.705Z,10.63
2022-10-14T22:44:04.358Z,10.63
2022-10-14T22:47:13.936Z,10.62
2022-10-14T22:50:19.731Z,10.60
2022-10-14T22:53:26.493Z,10.56
2022-10-14T22:56:33.422Z,10.52
2022-10-14T22:59:39.883Z,10.52
2022-10-14T23:02:48.954Z,10.52
2022-10-14T23:05:55.564Z,10.51
2022-10-14T23:09:03.547Z,10.49
2022-10-14T23:12:10.508Z,10.48
2022-10-14T23:15:16.421Z,10.50
2022-10-14T23:18:26.124Z,10.55
2022-10-14T23:21:33.889Z,10.59
2022-10-14T23:24:40.338Z,10.64
2022-10-14T23:27:46.068Z,10.69
2022-10-14T23:30:52.937Z,10.73
2022-10-14T23:34:06.858Z,10.79
2022-10-14T23:37:13.395Z,10.79
2022-10-14T23:40:19.210Z,10.80
2022-10-14T23:43:25.874Z,10.80
2022-10-14T23:46:31.931Z,10.79
2022-10-14T23:49:41.644Z,10.78
2022-10-14T23:52:47.252Z,10.76
2022-10-14T23:55:53.748Z,10.75
2022-10-14T23:59:03.271Z,10.75
